Time;durP1;ratioP1;P1;durP2;ratioP2;P2;SDS_P1;SDS_P2;PMS_P1;PMS_P2;Temp;Humidity;BMP_temperature;BMP_pressure;BME280_temperature;BME280_humidity;BME280_pressure;Samples;Min_cycle;Max_cycle;Signal;HPM_P1;HPM_P2
2023/03/11 00:02:16;985119.00;3.28;1706.13;24128.00;0.08;42.42;;;;;6.40;1.00;;;;;;2276397;61;926;-86
2023/03/11 00:04:43;1262437.00;4.21;2203.52;100598.00;0.34;174.60;;;;;6.40;1.00;;;;;;2276413;61;914;-87
2023/03/11 00:07:11;1162697.00;3.88;2022.92;119512.00;0.40;207.24;;;;;6.40;1.00;;;;;;2276276;61;1599;-86
2023/03/11 00:09:38;1011498.00;3.37;1752.85;124054.00;0.41;215.07;;;;;6.30;1.00;;;;;;2276412;61;1317;-86
2023/03/11 00:12:06;1174099.00;3.91;2043.46;110931.00;0.37;192.44;;;;;6.40;1.00;;;;;;2276297;61;1718;-87
2023/03/11 00:14:33;118569064.00;395.23;67523408.00;114353.00;0.38;198.34;;;;;6.70;1.00;;;;;;2276292;61;1915;-86
2023/03/11 00:17:01;876765.00;2.92;1515.35;100183.00;0.33;173.89;;;;;6.80;1.00;;;;;;2276350;61;1121;-86
2023/03/11 00:19:28;1212895.00;4.04;2113.55;128982.00;0.43;223.57;;;;;6.60;1.00;;;;;;2276353;61;1385;-86
2023/03/11 00:21:55;1306300.00;4.35;2283.64;145567.00;0.49;252.17;;;;;6.60;1.00;;;;;;2276384;61;1074;-87
2023/03/11 00:24:22;1425554.00;4.75;2503.80;112509.00;0.38;195.16;;;;;6.60;1.00;;;;;;2276259;61;1186;-86
2023/03/11 00:26:49;778623.00;2.60;1343.87;99234.00;0.33;172.25;;;;;6.90;1.00;;;;;;2276327;61;923;-86
2023/03/11 00:29:16;938163.00;3.13;1623.25;101069.00;0.34;175.42;;;;;7.00;1.00;;;;;;2276283;61;1385;-86
2023/03/11 00:31:42;1194390.00;3.98;2080.08;105579.00;0.35;183.20;;;;;7.20;1.00;;;;;;2276332;61;998;-87
2023/03/11 00:34:11;870078.00;2.90;1503.63;95689.00;0.32;166.13;;;;;7.20;1.00;;;;;;2276279;61;1994;-87
2023/03/11 00:36:38;838435.00;2.79;1448.24;95251.00;0.32;165.37;;;;;7.30;1.00;;;;;;2276387;61;1020;-87
2023/03/11 00:39:06;981737.00;3.27;1700.15;85901.00;0.29;149.23;;;;;7.50;1.00;;;;;;2276227;61;1341;-87
2023/03/11 00:41:33;1031295.00;3.44;1787.98;106610.00;0.36;184.98;;;;;7.90;1.00;;;;;;2276300;61;1144;-87
2023/03/11 00:44:00;896046.00;2.99;1549.18;88006.00;0.29;152.86;;;;;7.90;1.00;;;;;;2276319;61;997;-88
2023/03/11 00:46:28;900672.00;3.00;1557.30;98818.00;0.33;171.53;;;;;7.90;1.00;;;;;;2276193;61;998;-86
2023/03/11 00:48:55;1200145.00;4.00;2090.48;122361.00;0.41;212.15;;;;;7.80;1.00;;;;;;2276113;61;1383;-86
2023/03/11 00:51:24;1168571.00;3.90;2033.50;196703.00;0.66;340.25;;;;;8.10;1.00;;;;;;2276258;61;2243;-86
2023/03/11 00:53:51;119419840.00;398.07;68988704.00;124084.00;0.41;215.13;;;;;8.20;1.00;;;;;;2276150;61;1927;-88
2023/03/11 00:56:18;1291918.00;4.31;2257.32;117393.00;0.39;203.59;;;;;8.40;1.00;;;;;;2276245;61;953;-86
2023/03/11 00:58:45;1130647.00;3.77;1965.32;110944.00;0.37;192.46;;;;;8.50;1.00;;;;;;2276209;61;997;-86
2023/03/11 01:01:14;1037039.00;3.46;1798.18;111456.00;0.37;193.34;;;;;8.40;1.00;;;;;;2276155;61;1288;-86
2023/03/11 01:03:42;1023319.00;3.41;1773.82;125588.00;0.42;217.72;;;;;8.00;1.00;;;;;;2276203;61;1122;-87
2023/03/11 01:06:09;1030665.00;3.44;1786.86;66274.00;0.22;115.32;;;;;8.00;1.00;;;;;;2276042;61;1604;-88
2023/03/11 01:08:38;893686.00;2.98;1545.03;81075.00;0.27;140.89;;;;;7.80;1.00;;;;;;2276265;61;993;-86
2023/03/11 01:11:06;1111434.00;3.70;1930.88;119082.00;0.40;206.50;;;;;7.70;1.00;;;;;;2276195;61;1432;-86
2023/03/11 01:13:34;806280.00;2.69;1392.08;68024.00;0.23;118.35;;;;;7.50;1.00;;;;;;2276040;61;1919;-87
2023/03/11 01:16:01;1117648.00;3.73;1942.01;0.00;0.00;0.62;;;;;7.40;1.00;;;;;;2276193;61;918;-86
2023/03/11 01:18:28;837356.00;2.79;1446.35;28702.00;0.10;50.34;;;;;7.50;1.00;;;;;;2276145;61;1311;-85
2023/03/11 01:20:55;987647.00;3.29;1710.61;18964.00;0.06;33.48;;;;;7.40;1.00;;;;;;2275622;61;1396;-86
2023/03/11 01:23:23;1105179.00;3.68;1919.69;59032.00;0.20;102.80;;;;;7.70;1.00;;;;;;2276160;61;1131;-88
2023/03/11 01:25:51;758934.00;2.53;1309.60;0.00;0.00;0.62;;;;;8.00;1.00;;;;;;2276030;61;1042;-87
2023/03/11 01:28:19;786397.00;2.62;1357.41;0.00;0.00;0.62;;;;;8.30;1.00;;;;;;2276136;61;1476;-88
2023/03/11 01:30:46;1142893.00;3.81;1987.30;5459.00;0.02;10.08;;;;;8.70;1.00;;;;;;2276004;61;1714;-86
2023/03/11 01:33:16;1164408.00;3.88;2026.00;31608.00;0.11;55.37;;;;;8.60;1.00;;;;;;2276168;61;1058;-86
2023/03/11 01:35:44;790895.00;2.64;1365.25;13649.00;0.05;24.27;;;;;7.90;1.00;;;;;;2276056;61;1937;-86
2023/03/11 01:38:12;644429.00;2.15;1111.00;0.00;0.00;0.62;;;;;7.80;1.00;;;;;;2276050;61;1117;-85
2023/03/11 01:40:42;691083.00;2.30;1191.78;0.00;0.00;0.62;;;;;8.00;1.00;;;;;;2276021;61;1313;-86
2023/03/11 01:43:49;723546.00;2.41;1248.09;17176.00;0.06;30.38;;;;;8.30;1.00;;;;;;2276113;61;1566;-87
2023/03/11 01:46:19;312900.00;1.04;540.09;0.00;0.00;0.62;;;;;8.60;1.00;;;;;;2276106;61;1077;-87
2023/03/11 01:48:48;120197192.00;400.66;70345984.00;0.00;0.00;0.62;;;;;8.60;1.00;;;;;;2276027;61;1148;-87
2023/03/11 01:51:19;390101.00;1.30;672.79;0.00;0.00;0.62;;;;;8.10;1.00;;;;;;2275910;61;1288;-86
2023/03/11 01:53:47;349850.00;1.17;603.60;8263.00;0.03;14.94;;;;;8.10;1.00;;;;;;2275973;61;1915;-83
2023/03/11 01:56:14;279758.00;0.93;483.12;0.00;0.00;0.62;;;;;8.30;1.00;;;;;;2276015;61;1577;-84
2023/03/11 01:58:45;348444.00;1.16;601.19;0.00;0.00;0.62;;;;;8.30;1.00;;;;;;2276031;61;1165;-85
2023/03/11 02:01:14;536552.00;1.79;924.78;0.00;0.00;0.62;;;;;8.30;1.00;;;;;;2276003;61;1321;-87
2023/03/11 02:03:42;199240.00;0.66;344.62;0.00;0.00;0.62;;;;;8.40;1.00;;;;;;2276023;61;1408;-87
2023/03/11 02:06:13;310048.00;1.03;535.19;0.00;0.00;0.62;;;;;8.30;1.00;;;;;;2276001;61;1054;-87
2023/03/11 02:08:42;169794.00;0.57;293.91;0.00;0.00;0.62;;;;;8.00;1.00;;;;;;2275987;61;1244;-87
2023/03/11 02:11:14;413959.00;1.38;713.80;2951.00;0.01;5.73;;;;;7.90;1.00;;;;;;2276056;61;1291;-86
2023/03/11 02:13:43;289326.00;0.96;499.57;0.00;0.00;0.62;;;;;7.50;1.00;;;;;;2275858;61;1922;-84
2023/03/11 02:16:10;337415.00;1.12;582.23;0.00;0.00;0.62;;;;;7.20;1.00;;;;;;2276023;61;987;-84
2023/03/11 02:18:38;417975.00;1.39;720.71;0.00;0.00;0.62;;;;;7.00;1.00;;;;;;2275826;61;1150;-83
2023/03/11 02:21:17;361300.00;1.20;623.28;0.00;0.00;0.62;;;;;6.90;1.00;;;;;;2275979;61;1365;-86
2023/03/11 02:23:53;520366.00;1.73;896.90;0.00;0.00;0.62;;;;;7.40;1.00;;;;;;2276014;61;1106;-84
2023/03/11 02:26:25;422920.00;1.41;729.21;0.00;0.00;0.62;;;;;7.40;1.00;;;;;;2275989;61;936;-84
2023/03/11 02:28:54;282682.00;0.94;488.15;0.00;0.00;0.62;;;;;7.60;1.00;;;;;;2275954;61;1725;-86
2023/03/11 02:31:23;374225.00;1.25;645.50;0.00;0.00;0.62;;;;;8.00;1.00;;;;;;2275888;61;1443;-84
2023/03/11 02:33:54;459560.00;1.53;792.23;0.00;0.00;0.62;;;;;7.90;1.00;;;;;;2275781;61;2004;-83
2023/03/11 02:36:33;364239.00;1.21;628.33;0.00;0.00;0.62;;;;;7.80;1.00;;;;;;2275884;61;1604;-87
2023/03/11 02:39:00;208413.00;0.69;360.40;0.00;0.00;0.62;;;;;7.80;1.00;;;;;;2275931;61;1300;-87
2023/03/11 02:41:28;324396.00;1.08;559.85;0.00;0.00;0.62;;;;;7.80;1.00;;;;;;2275877;61;1076;-88
2023/03/11 02:43:57;474133.00;1.58;817.30;0.00;0.00;0.62;;;;;7.80;1.00;;;;;;2275977;61;1021;-86
2023/03/11 02:46:24;404263.00;1.35;697.13;0.00;0.00;0.62;;;;;7.60;1.00;;;;;;2275855;61;904;-83
2023/03/11 02:48:53;404081.00;1.35;696.82;0.00;0.00;0.62;;;;;7.80;1.00;;;;;;2275743;61;1642;-84
2023/03/11 02:51:20;212876.00;0.71;368.08;0.00;0.00;0.62;;;;;7.70;1.00;;;;;;2275907;61;1105;-84
2023/03/11 02:53:51;321923.00;1.07;555.60;0.00;0.00;0.62;;;;;7.50;1.00;;;;;;2275908;61;1913;-86
2023/03/11 02:56:18;365122.00;1.22;629.85;0.00;0.00;0.62;;;;;7.00;1.00;;;;;;2275881;61;1046;-86
2023/03/11 02:58:45;258278.00;0.86;446.19;0.00;0.00;0.62;;;;;7.20;1.00;;;;;;2275920;61;1156;-85
2023/03/11 03:01:13;531616.00;1.77;916.28;0.00;0.00;0.62;;;;;7.50;1.00;;;;;;2275890;61;1198;-84
2023/03/11 03:03:40;317285.00;1.06;547.63;0.00;0.00;0.62;;;;;7.80;1.00;;;;;;2275801;61;1052;-85
2023/03/11 03:06:07;368306.00;1.23;635.33;0.00;0.00;0.62;;;;;7.80;1.00;;;;;;2275812;61;1111;-87
2023/03/11 03:08:34;471817.00;1.57;813.32;0.00;0.00;0.62;;;;;7.70;1.00;;;;;;2275867;61;1092;-86
2023/03/11 03:11:02;318823.00;1.06;550.28;0.00;0.00;0.62;;;;;7.50;1.00;;;;;;2275845;61;1413;-85
2023/03/11 03:13:29;327503.00;1.09;565.19;0.00;0.00;0.62;;;;;7.50;1.00;;;;;;2275884;61;999;-86
2023/03/11 03:15:57;330773.00;1.10;570.81;0.00;0.00;0.62;;;;;7.70;1.00;;;;;;2275779;61;2001;-85
2023/03/11 03:18:25;343974.00;1.15;593.50;0.00;0.00;0.62;;;;;8.00;1.00;;;;;;2275729;61;1412;-85
2023/03/11 03:20:52;353734.00;1.18;610.28;0.00;0.00;0.62;;;;;7.90;1.00;;;;;;2275738;61;1427;-84
2023/03/11 03:23:20;424632.00;1.42;732.15;0.00;0.00;0.62;;;;;7.60;1.00;;;;;;2275822;61;1288;-85
2023/03/11 03:25:47;412431.00;1.37;711.18;0.00;0.00;0.62;;;;;7.60;1.00;;;;;;2276418;61;1059;-83
2023/03/11 03:28:15;424465.00;1.41;731.87;0.00;0.00;0.62;;;;;7.60;1.00;;;;;;2276467;61;1141;-85
2023/03/11 03:30:42;294336.00;0.98;508.18;0.00;0.00;0.62;;;;;7.70;1.00;;;;;;2276454;61;1763;-85
2023/03/11 03:33:09;313521.00;1.05;541.16;0.00;0.00;0.62;;;;;7.50;1.00;;;;;;2276545;61;992;-86
2023/03/11 03:35:42;392606.00;1.31;677.09;6344.00;0.02;11.61;;;;;7.40;1.00;;;;;;2276520;61;1989;-84
2023/03/11 03:38:09;447280.00;1.49;771.10;0.00;0.00;0.62;;;;;6.50;1.00;;;;;;2276537;61;1146;-83
2023/03/11 03:40:36;368325.00;1.23;635.36;0.00;0.00;0.62;;;;;5.90;1.00;;;;;;2276474;61;1328;-85
2023/03/11 03:43:03;421981.00;1.41;727.60;0.00;0.00;0.62;;;;;5.50;1.00;;;;;;2276415;61;1610;-86
2023/03/11 03:45:30;471269.00;1.57;812.37;0.00;0.00;0.62;;;;;5.30;1.00;;;;;;2276460;61;906;-84
2023/03/11 03:47:58;538833.00;1.80;928.71;0.00;0.00;0.62;;;;;5.50;1.00;;;;;;2276354;61;1138;-85
2023/03/11 03:50:24;459430.00;1.53;792.00;0.00;0.00;0.62;;;;;6.10;1.00;;;;;;2276446;61;1512;-84
2023/03/11 03:52:53;459994.00;1.53;792.97;0.00;0.00;0.62;;;;;6.50;1.00;;;;;;2276377;61;1511;-84
2023/03/11 03:55:20;487641.00;1.63;840.55;0.00;0.00;0.62;;;;;6.30;1.00;;;;;;2276312;61;1927;-85
2023/03/11 03:57:47;314791.00;1.05;543.34;0.00;0.00;0.62;;;;;6.40;1.00;;;;;;2276466;61;1151;-85
2023/03/11 04:00:15;617927.00;2.06;1065.18;22338.00;0.07;39.32;;;;;6.50;1.00;;;;;;2276278;61;1354;-86
2023/03/11 04:02:42;415223.00;1.38;715.98;0.00;0.00;0.62;;;;;6.60;1.00;;;;;;2276743;61;1129;-84
2023/03/11 04:05:10;408394.00;1.36;704.24;0.00;0.00;0.62;;;;;6.70;1.00;;;;;;2276674;61;1063;-84
2023/03/11 04:07:37;372273.00;1.24;642.14;0.00;0.00;0.62;;;;;6.60;1.00;;;;;;2276648;61;1039;-83
2023/03/11 04:10:07;364714.00;1.22;629.15;0.00;0.00;0.62;;;;;6.40;1.00;;;;;;2276603;61;1426;-81
2023/03/11 04:12:34;372377.00;1.24;642.32;0.00;0.00;0.62;;;;;6.10;1.00;;;;;;2276617;61;1618;-80
2023/03/11 04:15:01;496423.00;1.65;855.67;0.00;0.00;0.62;;;;;5.80;1.00;;;;;;2276524;61;1922;-85
2023/03/11 04:17:28;382043.00;1.27;658.94;0.00;0.00;0.62;;;;;5.70;1.00;;;;;;2276640;61;1593;-83
2023/03/11 04:19:55;389759.00;1.30;672.20;9892.00;0.03;17.76;;;;;5.40;1.00;;;;;;2276693;61;1308;-86
2023/03/11 04:22:22;513527.00;1.71;885.12;21033.00;0.07;37.06;;;;;5.60;1.00;;;;;;2276651;61;1550;-83
2023/03/11 04:24:48;353321.00;1.18;609.57;0.00;0.00;0.62;;;;;5.80;1.00;;;;;;2276653;61;987;-87
2023/03/11 04:27:17;434549.00;1.45;749.21;0.00;0.00;0.62;;;;;6.10;1.00;;;;;;2276710;61;1051;-84
2023/03/11 04:29:44;346828.00;1.16;598.41;0.00;0.00;0.62;;;;;6.50;1.00;;;;;;2276643;61;1264;-86
2023/03/11 04:32:11;478245.00;1.59;824.38;0.00;0.00;0.62;;;;;7.00;1.00;;;;;;2276643;61;1136;-87
2023/03/11 04:34:38;249418.00;0.83;430.95;0.00;0.00;0.62;;;;;7.20;1.00;;;;;;2276580;61;1988;-83
2023/03/11 04:37:06;345967.00;1.15;596.93;0.00;0.00;0.62;;;;;7.50;1.00;;;;;;2276650;61;1171;-84
2023/03/11 04:39:33;396898.00;1.32;684.47;0.00;0.00;0.62;;;;;7.50;1.00;;;;;;2276614;61;1256;-86
2023/03/11 04:42:00;416065.00;1.39;717.42;0.00;0.00;0.62;;;;;7.80;1.00;;;;;;2276584;61;1063;-85
2023/03/11 04:44:29;354470.00;1.18;611.54;0.00;0.00;0.62;;;;;7.80;1.00;;;;;;2276503;61;1734;-84
2023/03/11 04:46:56;500845.00;1.67;863.28;0.00;0.00;0.62;;;;;8.00;1.00;;;;;;2276458;61;1119;-82
2023/03/11 04:49:23;188621.00;0.63;326.33;0.00;0.00;0.62;;;;;8.50;1.00;;;;;;2276487;61;1622;-85
2023/03/11 04:51:50;234250.00;0.78;404.86;0.00;0.00;0.62;;;;;8.80;1.00;;;;;;2276493;61;1089;-82
2023/03/11 04:54:17;316195.00;1.05;545.76;0.00;0.00;0.62;;;;;9.20;1.00;;;;;;2276509;61;1042;-82
2023/03/11 04:56:44;330298.00;1.10;570.00;0.00;0.00;0.62;;;;;8.60;1.00;;;;;;2276394;61;1960;-84
2023/03/11 04:59:11;273108.00;0.91;471.69;0.00;0.00;0.62;;;;;8.30;1.00;;;;;;2276471;61;1401;-84
2023/03/11 05:01:39;407302.00;1.36;702.36;0.00;0.00;0.62;;;;;7.80;1.00;;;;;;2276468;61;1750;-84
2023/03/11 05:04:07;409856.00;1.37;706.75;0.00;0.00;0.62;;;;;7.10;1.00;;;;;;2276596;61;1122;-84
2023/03/11 05:06:34;456765.00;1.52;787.42;0.00;0.00;0.62;;;;;6.80;1.00;;;;;;2276520;61;1040;-87
2023/03/11 05:09:01;536413.00;1.79;924.54;13508.00;0.05;24.03;;;;;6.80;1.00;;;;;;2276404;61;1693;-84
2023/03/11 05:11:28;239235.00;0.80;413.44;0.00;0.00;0.62;;;;;7.10;1.00;;;;;;2276441;61;981;-84
2023/03/11 05:13:55;469118.00;1.56;808.67;0.00;0.00;0.62;;;;;7.50;1.00;;;;;;2276426;61;2144;-84
2023/03/11 05:16:22;300357.00;1.00;518.53;0.00;0.00;0.62;;;;;7.70;1.00;;;;;;2276437;61;2029;-83
2023/03/11 05:18:50;438214.00;1.46;755.51;0.00;0.00;0.62;;;;;8.00;1.00;;;;;;2276422;61;1105;-85
2023/03/11 05:21:17;387096.00;1.29;667.62;0.00;0.00;0.62;;;;;7.70;1.00;;;;;;2276433;61;1596;-83
2023/03/11 05:23:45;408054.00;1.36;703.65;25958.00;0.09;45.59;;;;;7.60;1.00;;;;;;2276523;61;1180;-85
2023/03/11 05:26:12;419021.00;1.40;722.51;17271.00;0.06;30.54;;;;;7.80;1.00;;;;;;2276287;61;1051;-84
2023/03/11 05:28:39;378030.00;1.26;652.04;0.00;0.00;0.62;;;;;7.60;1.00;;;;;;2276412;61;1752;-84
2023/03/11 05:31:09;379625.00;1.27;654.78;0.00;0.00;0.62;;;;;7.60;1.00;;;;;;2276382;61;1254;-84
2023/03/11 05:33:36;305939.00;1.02;528.13;0.00;0.00;0.62;;;;;7.30;1.00;;;;;;2276452;61;1113;-84
2023/03/11 05:36:09;486085.00;1.62;837.87;0.00;0.00;0.62;;;;;7.30;1.00;;;;;;2276344;61;2000;-87
2023/03/11 05:38:36;299969.00;1.00;517.87;11467.00;0.04;20.49;;;;;7.00;1.00;;;;;;2276421;61;1063;-84
2023/03/11 05:41:05;277999.00;0.93;480.10;0.00;0.00;0.62;;;;;7.00;1.00;;;;;;2276484;61;1310;-84
2023/03/11 05:43:31;236456.00;0.79;408.65;0.00;0.00;0.62;;;;;7.10;1.00;;;;;;2276431;61;997;-85
2023/03/11 05:45:58;415904.00;1.39;717.15;0.00;0.00;0.62;;;;;7.10;1.00;;;;;;2276399;61;902;-83
2023/03/11 05:48:25;386828.00;1.29;667.16;0.00;0.00;0.62;;;;;7.20;1.00;;;;;;2276126;61;1135;-84
2023/03/11 05:50:52;411027.00;1.37;708.76;2582.00;0.01;5.10;;;;;7.10;1.00;;;;;;2276356;61;1372;-84
2023/03/11 05:53:27;331250.00;1.10;571.63;0.00;0.00;0.62;;;;;7.30;1.00;;;;;;2276380;61;1158;-82
2023/03/11 05:55:57;294979.00;0.98;509.29;0.00;0.00;0.62;;;;;7.30;1.00;;;;;;2280718;39;3521;-85
2023/03/11 05:58:24;408155.00;1.36;703.83;0.00;0.00;0.62;;;;;7.40;1.00;;;;;;2284437;60;935;-87
2023/03/11 06:21:07;305063.00;1.02;526.62;0.00;0.00;0.62;;;;;7.60;1.00;;;;;;1907313;56;2116;-89
2023/03/11 06:23:34;555556.00;1.85;957.54;0.00;0.00;0.62;;;;;7.80;1.00;;;;;;2276135;61;1449;-88
2023/03/11 06:31:07;747474.00;2.49;1289.67;0.00;0.00;0.62;;;;;7.90;1.00;;;;;;2279311;61;1385;-90
2023/03/11 06:33:34;206642.00;0.69;357.36;0.00;0.00;0.62;;;;;7.80;1.00;;;;;;2276844;61;1828;-89
2023/03/11 06:36:02;416654.00;1.39;718.44;0.00;0.00;0.62;;;;;8.00;1.00;;;;;;2276780;61;1917;-92
2023/03/11 06:38:32;285614.00;0.95;493.19;0.00;0.00;0.62;;;;;7.90;1.00;;;;;;2276845;61;727;-92
2023/03/11 06:41:00;316154.00;1.05;545.69;0.00;0.00;0.62;;;;;7.40;1.00;;;;;;2276768;61;2044;-89
2023/03/11 07:29:32;661633.00;2.21;1140.77;0.00;0.00;0.62;;;;;11.70;1.00;;;;;;2282028;61;1328;-86
2023/03/11 08:50:45;1032181.00;3.44;1789.55;79898.00;0.27;138.86;;;;;11.10;1.00;;;;;;2439709;39;3977;-85
2023/03/11 09:26:07;1082654.00;3.61;1879.43;68065.00;0.23;118.42;;;;;10.10;1.00;;;;;;2282431;61;1323;-88
2023/03/11 09:31:04;962584.00;3.21;1666.31;0.00;0.00;0.62;;;;;9.80;1.00;;;;;;2279012;61;1366;-88
2023/03/11 09:33:32;258668.00;0.86;446.86;0.00;0.00;0.62;;;;;9.00;1.00;;;;;;2276986;61;1741;-88
2023/03/11 10:08:40;1182358.00;3.94;2058.36;39697.00;0.13;69.36;;;;;10.60;1.00;;;;;;2294447;39;3584;-88
2023/03/11 10:13:45;1075738.00;3.59;1867.09;0.00;0.00;0.62;;;;;10.00;1.00;;;;;;2394555;40;3451;-83
2023/03/11 10:23:50;1326192.00;4.42;2320.12;145919.00;0.49;252.77;;;;;11.70;1.00;;;;;;2462169;39;3622;31
2023/03/11 10:39:02;715541.00;2.39;1234.20;0.00;0.00;0.62;;;;;11.10;1.00;;;;;;2414560;39;3685;-85
2023/03/11 10:46:29;923837.00;3.08;1598.02;0.00;0.00;0.62;;;;;10.80;1.00;;;;;;2403777;55;3578;-87
2023/03/11 11:49:14;1193529.00;3.98;2078.52;0.00;0.00;0.62;;;;;10.60;1.00;;;;;;2336525;39;3483;-88
2023/03/11 12:16:52;1163039.00;3.88;2023.54;5318.00;0.02;9.84;;;;;9.50;1.00;;;;;;2273937;61;1984;-88
2023/03/11 13:09:41;865186.00;2.88;1495.06;0.00;0.00;0.62;;;;;10.90;1.00;;;;;;2366352;55;3690;-85
2023/03/11 13:12:42;357685.00;1.19;617.07;0.00;0.00;0.62;;;;;11.20;1.00;;;;;;2371096;39;3590;-85
2023/03/11 13:15:34;424990.00;1.42;732.77;0.00;0.00;0.62;;;;;11.60;1.00;;;;;;2376421;39;3682;-88
2023/03/11 14:00:58;791185.00;2.64;1365.75;0.00;0.00;0.62;;;;;11.60;1.00;;;;;;2316917;39;3518;-85
2023/03/11 14:13:42;209520.00;0.70;362.31;0.00;0.00;0.62;;;;;11.80;1.00;;;;;;2386199;39;2979;-86
2023/03/11 14:21:17;1132569.00;3.78;1968.77;0.00;0.00;0.62;;;;;12.10;1.00;;;;;;2277313;61;1414;-89
2023/03/11 14:43:54;491245.00;1.64;846.75;0.00;0.00;0.62;;;;;12.30;1.00;;;;;;604289;56;3084;-86
2023/03/11 14:56:56;;;;;;;;;;;;;;;;;;;;;
2023/03/11 15:29:59;712063.00;2.37;1228.16;0.00;0.00;0.62;;;;;12.60;1.00;;;;;;2278970;61;1302;-88
2023/03/11 16:06:57;374315.00;1.25;645.65;0.00;0.00;0.62;;;;;11.30;1.00;;;;;;1598847;40;3235;-87
2023/03/11 16:34:51;1219364.00;4.06;2125.27;95237.00;0.32;165.35;;;;;8.90;1.00;;;;;;2282277;60;1402;-88
2023/03/11 16:37:20;1209809.00;4.03;2107.96;0.00;0.00;0.62;;;;;8.30;1.00;;;;;;2280532;60;2000;-86
2023/03/11 16:39:48;922287.00;3.07;1595.30;40207.00;0.13;70.25;;;;;7.70;1.00;;;;;;2278919;60;1398;-87
2023/03/11 16:42:22;777892.00;2.59;1342.59;0.00;0.00;0.62;;;;;7.50;1.00;;;;;;2378967;40;3621;-85
2023/03/11 16:44:53;864362.00;2.88;1493.61;15099.00;0.05;26.78;;;;;7.50;1.00;;;;;;2280547;61;919;-87
2023/03/11 16:49:55;1115530.00;3.72;1938.22;0.00;0.00;0.62;;;;;7.60;1.00;;;;;;2280792;60;1520;-86
2023/03/11 16:54:50;1392746.00;4.64;2442.88;33901.00;0.11;59.33;;;;;7.50;1.00;;;;;;2282152;60;1371;-86
2023/03/11 16:57:20;803024.00;2.68;1386.40;23800.00;0.08;41.85;;;;;7.60;1.00;;;;;;2280329;60;1931;-87
2023/03/11 16:59:48;629865.00;2.10;1085.82;1185.00;0.00;2.67;;;;;7.70;1.00;;;;;;2278570;60;1395;-87
2023/03/11 17:04:47;1117576.00;3.73;1941.88;0.00;0.00;0.62;;;;;7.40;1.00;;;;;;2281946;61;1294;-87
2023/03/11 17:09:44;626511.00;2.09;1080.02;0.00;0.00;0.62;;;;;7.70;1.00;;;;;;2274931;61;1336;-87
2023/03/11 17:12:14;603607.00;2.01;1040.45;0.00;0.00;0.62;;;;;7.80;1.00;;;;;;2281460;40;3589;-88
2023/03/11 17:14:41;338226.00;1.13;583.62;0.00;0.00;0.62;;;;;7.80;1.00;;;;;;2276278;61;1562;-88
2023/03/11 17:17:09;618566.00;2.06;1066.29;0.00;0.00;0.62;;;;;7.50;1.00;;;;;;2276226;61;1986;-86
2023/03/11 17:19:36;334241.00;1.11;576.78;0.00;0.00;0.62;;;;;7.40;1.00;;;;;;2275179;61;1524;-87
2023/03/11 17:22:05;646048.00;2.15;1113.80;9243.00;0.03;16.64;;;;;7.10;1.00;;;;;;2272191;61;903;-86
2023/03/11 17:24:32;584067.00;1.95;1006.72;0.00;0.00;0.62;;;;;6.80;1.00;;;;;;2345548;55;3778;-87
2023/03/11 17:42:17;1128795.00;3.76;1962.00;0.00;0.00;0.62;;;;;6.90;1.00;;;;;;2278047;61;1243;-88
2023/03/11 17:54:45;1231330.00;4.10;2146.97;0.00;0.00;0.62;;;;;7.20;1.00;;;;;;2282078;60;1426;-88
2023/03/11 17:59:46;1030538.00;3.44;1786.63;0.00;0.00;0.62;;;;;6.90;1.00;;;;;;2280593;60;1331;-86
2023/03/11 18:02:21;542471.00;1.81;934.98;0.00;0.00;0.62;;;;;6.50;1.00;;;;;;2276286;61;1637;-86
2023/03/11 18:04:52;536824.00;1.79;925.25;0.00;0.00;0.62;;;;;6.40;1.00;;;;;;2276167;61;1581;-86
2023/03/11 18:07:21;369536.00;1.23;637.44;0.00;0.00;0.62;;;;;6.40;1.00;;;;;;2276269;61;1475;-85
2023/03/11 18:09:52;515421.00;1.72;888.38;0.00;0.00;0.62;;;;;6.20;1.00;;;;;;2276177;61;1580;-87
2023/03/11 18:12:20;614754.00;2.05;1059.70;14606.00;0.05;25.93;;;;;6.10;1.00;;;;;;2276166;61;991;-86
2023/03/11 18:15:02;705318.00;2.35;1216.46;59021.00;0.20;102.78;;;;;6.00;1.00;;;;;;2354412;55;3798;-88
2023/03/11 18:17:30;366370.00;1.22;632.00;0.00;0.00;0.62;;;;;6.20;1.00;;;;;;2280156;60;1994;-86
2023/03/11 18:20:07;529576.00;1.77;912.76;0.00;0.00;0.62;;;;;6.10;1.00;;;;;;2292897;55;3810;-88
2023/03/11 18:22:39;1211004.00;4.04;2110.13;0.00;0.00;0.62;;;;;6.20;1.00;;;;;;2280356;61;1234;-87
2023/03/11 18:33:09;1433684.00;4.78;2518.94;83753.00;0.28;145.52;;;;;6.10;1.00;;;;;;1547802;40;3480;-89
2023/03/11 18:56:03;307300.00;1.02;530.47;41544.00;0.14;72.56;;;;;6.40;1.00;;;;;;2423496;55;2097;-86
2023/03/11 19:06:05;990791.00;3.30;1716.17;0.00;0.00;0.62;;;;;7.00;1.00;;;;;;2372423;39;3601;-89
2023/03/11 19:08:35;815229.00;2.72;1407.70;0.00;0.00;0.62;;;;;7.20;1.00;;;;;;2331757;55;3780;-88
2023/03/11 19:13:39;646451.00;2.15;1114.50;0.00;0.00;0.62;;;;;7.10;1.00;;;;;;848649;39;3289;-87
2023/03/11 19:16:07;1124037.00;3.75;1953.46;0.00;0.00;0.62;;;;;6.90;1.00;;;;;;2345814;39;3764;-87
2023/03/11 19:41:13;89042.00;0.30;154.65;0.00;0.00;0.62;;;;;8.40;1.00;;;;;;2524784;55;1820;31
2023/03/11 19:43:46;1175470.00;3.92;2045.93;25309.00;0.08;44.46;;;;;8.50;1.00;;;;;;2408388;40;3528;-87
2023/03/11 20:02:06;946801.00;3.16;1638.47;102034.00;0.34;177.08;;;;;10.30;1.00;;;;;;635377;56;3116;-87
2023/03/11 20:07:14;1615532.00;5.39;2862.46;0.00;0.00;0.62;;;;;10.50;1.00;;;;;;2281829;60;1343;-88
2023/03/11 20:09:43;972675.00;3.24;1684.14;10909.00;0.04;19.52;;;;;10.80;1.00;;;;;;2335362;40;3584;-88
2023/03/11 20:12:19;729016.00;2.43;1257.59;18081.00;0.06;31.95;;;;;10.50;1.00;;;;;;2281476;39;3572;-87
2023/03/11 20:14:52;452572.00;1.51;780.21;0.00;0.00;0.62;;;;;10.10;1.00;;;;;;2294684;39;3623;-84
2023/03/11 20:17:23;860941.00;2.87;1487.62;0.00;0.00;0.62;;;;;10.10;1.00;;;;;;2351325;39;3606;-85
2023/03/11 20:22:22;771129.00;2.57;1330.82;0.00;0.00;0.62;;;;;10.30;1.00;;;;;;2293963;55;3647;-85
2023/03/11 20:24:59;752675.00;2.51;1298.71;0.00;0.00;0.62;;;;;10.50;1.00;;;;;;2309450;56;3691;-86
2023/03/11 20:52:54;1038257.00;3.46;1800.35;8470.00;0.03;15.30;;;;;11.10;1.00;;;;;;2330653;40;3472;-87
2023/03/11 20:55:24;856553.00;2.86;1479.94;0.00;0.00;0.62;;;;;10.00;1.00;;;;;;2285733;55;3757;-86
2023/03/11 21:00:27;444936.00;1.48;767.07;0.00;0.00;0.62;;;;;9.10;1.00;;;;;;2501393;39;2841;-87
2023/03/11 21:11:02;498336.00;1.66;858.96;98086.00;0.33;170.27;;;;;9.90;1.00;;;;;;1646139;39;3512;-87
2023/03/11 21:13:37;850550.00;2.84;1469.43;0.00;0.00;0.62;;;;;10.10;1.00;;;;;;2393071;40;3555;-90
2023/03/11 21:18:44;1211724.00;4.04;2111.43;26654.00;0.09;46.79;;;;;10.40;1.00;;;;;;2310717;40;3591;-90
2023/03/11 21:21:20;527387.00;1.76;908.99;0.00;0.00;0.62;;;;;10.60;1.00;;;;;;2283704;55;3826;-88
2023/03/11 21:23:54;415540.00;1.39;716.52;0.00;0.00;0.62;;;;;10.60;1.00;;;;;;2304486;39;3729;-84
2023/03/11 21:26:31;791626.00;2.64;1366.52;0.00;0.00;0.62;;;;;10.80;1.00;;;;;;2289923;55;3753;-88
2023/03/11 21:34:16;1051917.00;3.51;1824.64;0.00;0.00;0.62;;;;;11.50;1.00;;;;;;2344727;55;3579;-88
2023/03/11 21:36:54;505045.00;1.68;870.51;0.00;0.00;0.62;;;;;10.80;1.00;;;;;;2279970;61;1543;-87
2023/03/11 21:44:30;801520.00;2.67;1383.77;62309.00;0.21;108.47;;;;;11.20;1.00;;;;;;2282277;60;1311;-86
2023/03/11 21:46:58;466200.00;1.55;803.65;0.00;0.00;0.62;;;;;11.30;1.00;;;;;;2279981;60;1738;-88
2023/03/11 21:49:30;514288.00;1.71;886.43;0.00;0.00;0.62;;;;;11.40;1.00;;;;;;2279083;60;1549;-87
2023/03/11 21:54:36;406622.00;1.36;701.19;0.00;0.00;0.62;;;;;11.00;1.00;;;;;;1191953;39;3200;-87
2023/03/11 21:57:06;415272.00;1.38;716.06;0.00;0.00;0.62;;;;;11.10;1.00;;;;;;2285494;39;3634;-86
2023/03/11 21:59:38;398277.00;1.33;686.84;0.00;0.00;0.62;;;;;11.00;1.00;;;;;;2303760;39;3795;-88
2023/03/11 22:02:19;831341.00;2.77;1435.84;28764.00;0.10;50.44;;;;;10.70;1.00;;;;;;2275823;61;959;-86
2023/03/11 22:07:37;778594.00;2.60;1343.82;94585.00;0.32;164.22;;;;;10.20;1.00;;;;;;2284433;39;3617;-86
2023/03/11 22:10:08;1070441.00;3.57;1857.64;97092.00;0.32;168.55;;;;;9.80;1.00;;;;;;2281898;60;1550;-86
2023/03/11 22:15:14;1557845.00;5.19;2752.45;99679.00;0.33;173.02;;;;;10.00;1.00;;;;;;1495002;40;3406;-87
2023/03/11 22:17:41;1343234.00;4.48;2351.45;117343.00;0.39;203.50;;;;;10.10;1.00;;;;;;2279988;61;2004;-88